createdAt,value
2018-09-21T00:00:00.812Z,5.73
2018-09-21T00:02:32.300Z,5.90
2018-09-21T00:05:02.826Z,5.80
2018-09-21T00:07:34.299Z,5.93
2018-09-21T00:10:04.740Z,6.40
2018-09-21T00:12:35.658Z,6.30
2018-09-21T00:15:06.834Z,6.40
2018-09-21T00:17:37.798Z,6.00
2018-09-21T00:20:08.700Z,5.83
2018-09-21T00:22:39.866Z,6.33
2018-09-21T00:25:10.796Z,6.03
2018-09-21T00:27:42.252Z,5.73
2018-09-21T00:30:13.786Z,6.80
2018-09-21T00:32:44.601Z,6.13
2018-09-21T00:35:14.854Z,6.43
2018-09-21T00:37:46.297Z,6.03
2018-09-21T00:40:17.665Z,6.10
2018-09-21T00:42:48.150Z,6.07
2018-09-21T00:45:19.609Z,6.47
2018-09-21T00:47:50.624Z,6.63
2018-09-21T00:50:21.632Z,6.27
2018-09-21T00:52:53.079Z,6.30
2018-09-21T00:55:24.444Z,6.07
2018-09-21T00:57:55.698Z,6.60
2018-09-21T01:00:26.716Z,6.53
2018-09-21T01:02:57.730Z,5.87
2018-09-21T01:05:28.392Z,6.20
2018-09-21T01:07:59.560Z,6.03
2018-09-21T01:10:30.963Z,6.23
2018-09-21T01:13:01.916Z,6.20
2018-09-21T01:15:32.887Z,6.17
2018-09-21T01:18:03.779Z,6.30
2018-09-21T01:20:37.705Z,5.93
2018-09-21T01:23:08.775Z,6.33
2018-09-21T01:25:38.797Z,5.90
2018-09-21T01:28:10.288Z,5.57
2018-09-21T01:30:41.471Z,6.30
2018-09-21T01:33:12.954Z,6.27
2018-09-21T01:35:43.782Z,6.47
2018-09-21T01:38:14.777Z,6.27
2018-09-21T01:40:45.896Z,6.53
2018-09-21T01:43:16.230Z,7.03
2018-09-21T01:45:47.335Z,7.37
2018-09-21T01:48:18.528Z,6.73
2018-09-21T01:50:49.558Z,7.30
2018-09-21T01:53:20.702Z,7.43
2018-09-21T01:55:51.242Z,6.93
2018-09-21T01:58:22.494Z,7.33
2018-09-21T02:00:53.477Z,7.43
2018-09-21T02:03:25.021Z,7.00
2018-09-21T02:05:56.484Z,7.20
2018-09-21T02:08:27.970Z,7.97
2018-09-21T02:10:59.231Z,6.60
2018-09-21T02:13:30.712Z,6.97
2018-09-21T02:16:01.787Z,7.13
2018-09-21T02:18:32.297Z,7.20
2018-09-21T02:21:03.195Z,7.10
2018-09-21T02:23:34.431Z,7.00
2018-09-21T02:26:06.110Z,8.00
2018-09-21T02:28:36.932Z,8.43
2018-09-21T02:31:07.557Z,8.13
2018-09-21T02:33:38.013Z,8.07
2018-09-21T02:36:09.312Z,7.90
2018-09-21T02:38:39.951Z,7.47
2018-09-21T02:41:11.096Z,7.70
2018-09-21T02:43:43.428Z,7.70
2018-09-21T02:46:14.346Z,7.70
2018-09-21T02:48:45.679Z,7.63
2018-09-21T02:51:16.415Z,7.90
2018-09-21T02:53:47.286Z,7.30
2018-09-21T02:56:19.214Z,7.30
2018-09-21T02:58:50.026Z,6.83
2018-09-21T03:01:20.879Z,6.57
2018-09-21T03:03:52.089Z,7.33
2018-09-21T03:06:23.097Z,6.63
2018-09-21T03:08:54.233Z,6.63
2018-09-21T03:11:25.441Z,6.33
2018-09-21T03:13:55.581Z,6.50
2018-09-21T03:16:26.717Z,7.03
2018-09-21T03:18:57.741Z,6.27
2018-09-21T03:21:28.061Z,7.07
2018-09-21T03:23:59.067Z,6.63
2018-09-21T03:26:30.688Z,6.67
2018-09-21T03:29:01.646Z,7.70
2018-09-21T03:31:33.172Z,7.87
2018-09-21T03:34:05.467Z,8.07
2018-09-21T03:36:36.856Z,7.23
2018-09-21T03:39:10.362Z,7.73
2018-09-21T03:41:41.459Z,8.13
2018-09-21T03:44:12.341Z,8.23
2018-09-21T03:46:42.323Z,7.87
2018-09-21T03:49:12.423Z,8.23
2018-09-21T03:51:42.758Z,7.93
2018-09-21T03:54:13.011Z,7.40
2018-09-21T03:56:43.152Z,7.40
2018-09-21T03:59:13.418Z,7.90
2018-09-21T04:01:43.741Z,8.17
2018-09-21T04:04:13.985Z,7.73
2018-09-21T04:06:44.149Z,8.30
2018-09-21T04:09:14.639Z,8.17
2018-09-21T04:11:44.661Z,8.33
2018-09-21T04:14:15.017Z,8.37
2018-09-21T04:16:44.869Z,8.00
2018-09-21T04:19:15.184Z,8.90
2018-09-21T04:21:45.247Z,8.60
2018-09-21T04:24:15.683Z,9.40
2018-09-21T04:26:45.843Z,8.30
2018-09-21T04:29:15.916Z,8.73
2018-09-21T04:31:46.152Z,8.43
2018-09-21T04:34:16.129Z,8.23
2018-09-21T04:36:46.355Z,8.43
2018-09-21T04:39:16.918Z,8.50
2018-09-21T04:41:47.449Z,9.83
2018-09-21T04:44:17.690Z,9.10
2018-09-21T04:46:47.953Z,9.40
2018-09-21T04:49:19.181Z,9.43
2018-09-21T04:51:49.679Z,10.10
2018-09-21T04:54:19.988Z,9.67
2018-09-21T04:56:50.257Z,9.27
2018-09-21T04:59:20.429Z,9.70
2018-09-21T05:01:50.542Z,9.27
2018-09-21T05:04:20.563Z,8.80
2018-09-21T05:06:50.664Z,9.53
2018-09-21T05:09:20.826Z,9.30
2018-09-21T05:11:51.082Z,9.57
2018-09-21T05:14:21.317Z,9.37
2018-09-21T05:16:51.456Z,9.90
2018-09-21T05:19:21.605Z,9.40
2018-09-21T05:21:52.232Z,9.87
2018-09-21T05:24:22.564Z,9.77
2018-09-21T05:26:52.561Z,10.30
2018-09-21T05:29:22.688Z,9.90
2018-09-21T05:31:53.867Z,9.30
2018-09-21T05:34:24.166Z,9.40
2018-09-21T05:36:54.247Z,9.30
2018-09-21T05:39:24.493Z,9.20
2018-09-21T05:41:54.688Z,8.70
2018-09-21T05:44:24.944Z,8.87
2018-09-21T05:46:54.757Z,7.60
2018-09-21T05:49:24.801Z,8.30
2018-09-21T05:51:54.981Z,7.93
2018-09-21T05:54:25.053Z,7.77
2018-09-21T05:56:55.380Z,8.53
2018-09-21T05:59:25.504Z,12.97
2018-09-21T06:01:56.623Z,7.70
2018-09-21T06:04:26.910Z,7.57
2018-09-21T06:06:57.277Z,8.00
2018-09-21T06:09:27.353Z,8.43
2018-09-21T06:11:58.131Z,7.50
2018-09-21T06:14:29.243Z,9.67
2018-09-21T06:16:59.367Z,7.33
2018-09-21T06:19:30.029Z,7.37
2018-09-21T06:22:00.441Z,7.40
2018-09-21T06:24:30.512Z,7.87
2018-09-21T06:27:00.643Z,9.30
2018-09-21T06:29:30.781Z,8.13
2018-09-21T06:32:01.060Z,8.90
2018-09-21T06:34:31.143Z,10.37
2018-09-21T06:37:01.468Z,7.40
2018-09-21T06:39:31.774Z,6.80
2018-09-21T06:42:01.971Z,6.53
2018-09-21T06:44:31.846Z,6.33
2018-09-21T06:47:01.905Z,5.70
2018-09-21T06:49:31.867Z,6.47
2018-09-21T06:52:02.079Z,5.10
2018-09-21T06:54:32.301Z,5.63
2018-09-21T06:57:02.432Z,7.20
2018-09-21T06:59:32.594Z,5.70
2018-09-21T07:02:02.940Z,6.00
2018-09-21T07:04:33.371Z,7.70
2018-09-21T07:07:03.296Z,6.50
2018-09-21T07:09:33.290Z,6.10
2018-09-21T07:12:04.044Z,6.53
2018-09-21T07:14:34.047Z,7.67
2018-09-21T07:17:04.235Z,7.40
2018-09-21T07:19:34.381Z,7.23
2018-09-21T07:22:04.528Z,8.20
2018-09-21T07:24:34.576Z,8.17
2018-09-21T07:27:04.917Z,7.30
2018-09-21T07:29:35.523Z,7.03
2018-09-21T07:32:05.730Z,7.13
2018-09-21T07:34:35.780Z,7.00
2018-09-21T07:37:06.069Z,6.60
2018-09-21T07:39:36.133Z,6.80
2018-09-21T07:42:06.438Z,6.33
2018-09-21T07:44:36.851Z,5.57
2018-09-21T07:47:07.088Z,5.67
2018-09-21T07:49:37.249Z,5.00
2018-09-21T07:52:07.382Z,5.40
2018-09-21T07:54:37.541Z,5.53
2018-09-21T07:57:07.862Z,5.73
2018-09-21T07:59:37.993Z,4.87
2018-09-21T08:02:08.081Z,6.20
2018-09-21T08:04:38.112Z,5.30
2018-09-21T08:07:08.273Z,4.70
2018-09-21T08:09:38.377Z,5.17
2018-09-21T08:12:08.586Z,4.63
2018-09-21T08:14:38.816Z,4.40
2018-09-21T08:17:08.885Z,4.83
2018-09-21T08:19:39.444Z,4.53
2018-09-21T08:22:09.569Z,5.10
2018-09-21T08:24:39.733Z,4.77
2018-09-21T08:27:11.650Z,4.73
2018-09-21T08:29:41.997Z,4.43
2018-09-21T08:32:12.429Z,4.90
2018-09-21T08:34:42.568Z,4.30
2018-09-21T08:37:12.784Z,4.67
2018-09-21T08:39:42.847Z,4.63
2018-09-21T08:42:13.103Z,4.23
2018-09-21T08:44:43.227Z,4.53
2018-09-21T08:47:13.566Z,4.40
2018-09-21T08:49:43.648Z,5.23
2018-09-21T08:52:13.717Z,5.23
2018-09-21T08:54:43.966Z,3.80
2018-09-21T08:57:14.325Z,4.43
2018-09-21T08:59:44.349Z,4.47
2018-09-21T09:02:14.591Z,3.97
2018-09-21T09:04:44.709Z,3.40
2018-09-21T09:07:14.753Z,4.03
2018-09-21T09:09:44.831Z,4.37
2018-09-21T09:12:14.920Z,4.20
2018-09-21T09:14:45.104Z,4.57
2018-09-21T09:17:15.402Z,4.47
2018-09-21T09:19:45.420Z,4.10
2018-09-21T09:22:15.517Z,4.30
2018-09-21T09:27:14.650Z,4.40
2018-09-21T09:29:44.671Z,4.30
2018-09-21T09:32:14.820Z,4.10
2018-09-21T09:34:45.038Z,4.00
2018-09-21T09:37:15.147Z,4.90
2018-09-21T09:39:45.401Z,4.40
2018-09-21T09:42:15.449Z,3.40
2018-09-21T09:44:45.392Z,4.00
2018-09-21T09:47:15.532Z,3.63
2018-09-21T09:49:45.658Z,3.90
2018-09-21T09:52:15.812Z,3.20
2018-09-21T09:54:46.344Z,3.47
2018-09-21T09:57:16.752Z,3.57
2018-09-21T09:59:46.984Z,3.70
2018-09-21T10:02:17.245Z,3.20
2018-09-21T10:04:47.533Z,3.20
2018-09-21T10:07:17.629Z,3.73
2018-09-21T10:09:47.868Z,3.27
2018-09-21T10:12:18.149Z,3.30
2018-09-21T10:14:47.982Z,3.50
2018-09-21T10:17:18.081Z,3.60
2018-09-21T10:19:48.048Z,2.90
2018-09-21T10:22:18.231Z,3.37
2018-09-21T10:24:48.298Z,2.80
2018-09-21T10:27:18.535Z,3.23
2018-09-21T10:29:48.653Z,2.90
2018-09-21T10:32:19.690Z,3.20
2018-09-21T10:34:49.891Z,2.50
2018-09-21T10:37:20.038Z,2.60
2018-09-21T10:39:49.943Z,2.37
2018-09-21T10:42:20.153Z,2.60
2018-09-21T10:44:50.533Z,2.83
2018-09-21T10:47:20.821Z,2.47
2018-09-21T10:49:50.945Z,2.30
2018-09-21T10:52:20.989Z,4.33
2018-09-21T10:54:51.090Z,3.00
2018-09-21T10:57:21.437Z,2.50
2018-09-21T10:59:51.594Z,2.30
2018-09-21T11:02:21.761Z,2.30
2018-09-21T11:04:52.004Z,2.43
2018-09-21T11:07:22.313Z,1.97
2018-09-21T11:09:52.577Z,3.40
2018-09-21T11:12:23.004Z,3.00
2018-09-21T11:14:53.201Z,3.27
2018-09-21T11:17:23.378Z,3.20
2018-09-21T11:19:53.591Z,3.00
2018-09-21T11:22:23.907Z,2.63
2018-09-21T11:24:54.199Z,2.70
2018-09-21T11:27:24.500Z,2.37
2018-09-21T11:29:54.817Z,3.50
2018-09-21T11:32:25.215Z,3.13
2018-09-21T11:34:55.628Z,3.00
2018-09-21T11:37:25.734Z,2.60
2018-09-21T11:39:56.599Z,3.00
2018-09-21T11:42:26.863Z,3.17
2018-09-21T11:44:57.246Z,2.90
2018-09-21T11:47:27.560Z,3.08
2018-09-21T11:49:57.772Z,2.77
2018-09-21T11:52:27.832Z,2.83
2018-09-21T11:54:58.065Z,2.93
2018-09-21T11:57:28.475Z,3.37
2018-09-21T11:59:58.697Z,3.00
2018-09-21T12:02:28.850Z,3.27
2018-09-21T12:04:59.106Z,3.13
2018-09-21T12:07:29.057Z,2.95
2018-09-21T12:09:59.136Z,2.60
2018-09-21T12:12:29.393Z,2.57
2018-09-21T12:14:59.718Z,3.05
2018-09-21T12:17:30.404Z,3.10
2018-09-21T12:20:01.358Z,3.00
2018-09-21T12:22:31.478Z,6.72
2018-09-21T12:25:01.850Z,3.10
2018-09-21T12:27:31.934Z,2.95
2018-09-21T12:30:02.310Z,2.90
2018-09-21T12:32:32.585Z,2.90
2018-09-21T12:35:03.464Z,2.67
2018-09-21T12:37:33.659Z,2.90
2018-09-21T12:40:03.767Z,3.15
2018-09-21T12:42:34.045Z,2.42
2018-09-21T12:45:04.300Z,2.72
2018-09-21T12:47:34.213Z,2.95
2018-09-21T12:50:04.500Z,3.03
2018-09-21T12:52:34.874Z,3.20
2018-09-21T12:55:05.140Z,3.08
2018-09-21T12:57:35.230Z,2.67
2018-09-21T13:00:06.334Z,3.30
2018-09-21T13:02:36.651Z,2.80
2018-09-21T13:05:06.934Z,3.07
2018-09-21T13:07:37.768Z,3.10
2018-09-21T13:10:07.833Z,3.33
2018-09-21T13:12:38.067Z,3.73
2018-09-21T13:15:08.407Z,3.52
2018-09-21T13:17:38.527Z,5.27
2018-09-21T13:20:08.920Z,3.30
2018-09-21T13:22:39.382Z,3.47
2018-09-21T13:25:09.649Z,3.07
2018-09-21T13:27:39.722Z,4.83
2018-09-21T13:30:09.829Z,3.50
2018-09-21T13:32:39.821Z,3.63
2018-09-21T13:35:10.039Z,5.27
2018-09-21T13:37:40.332Z,3.23
2018-09-21T13:40:10.380Z,3.00
2018-09-21T13:42:40.724Z,3.33
2018-09-21T13:45:11.006Z,3.37
2018-09-21T13:47:41.175Z,3.53
2018-09-21T13:50:11.417Z,3.40
2018-09-21T13:52:41.794Z,3.80
2018-09-21T13:55:12.149Z,4.20
2018-09-21T13:57:42.514Z,3.30
2018-09-21T14:00:13.222Z,6.57
2018-09-21T14:02:44.169Z,3.50
2018-09-21T14:05:14.268Z,3.40
2018-09-21T14:07:44.434Z,3.60
2018-09-21T14:10:14.891Z,3.40
2018-09-21T14:12:45.143Z,5.80
2018-09-21T14:15:15.258Z,5.67
2018-09-21T14:17:45.439Z,5.77
2018-09-21T14:20:15.758Z,5.57
2018-09-21T14:22:46.020Z,5.57
2018-09-21T14:25:16.311Z,5.20
2018-09-21T14:27:46.411Z,7.73
2018-09-21T14:30:16.490Z,4.73
2018-09-21T14:32:46.536Z,5.43
2018-09-21T14:35:16.660Z,6.70
2018-09-21T14:37:46.706Z,6.37
2018-09-21T14:40:16.989Z,5.90
2018-09-21T14:42:47.189Z,5.37
2018-09-21T14:45:17.358Z,5.70
2018-09-21T14:47:47.373Z,6.53
2018-09-21T14:50:18.086Z,6.67
2018-09-21T14:52:48.383Z,8.40
2018-09-21T14:55:18.500Z,5.80
2018-09-21T14:57:48.789Z,6.30
2018-09-21T15:00:18.992Z,4.70
2018-09-21T15:02:49.120Z,3.90
2018-09-21T15:05:19.431Z,4.40
2018-09-21T15:07:49.718Z,4.17
2018-09-21T15:10:19.883Z,4.20
2018-09-21T15:12:50.018Z,5.47
2018-09-21T15:15:20.246Z,4.30
2018-09-21T15:17:50.312Z,4.03
2018-09-21T15:20:20.447Z,5.40
2018-09-21T15:22:50.661Z,11.37
2018-09-21T15:25:20.652Z,5.30
2018-09-21T15:27:50.817Z,4.60
2018-09-21T15:30:20.950Z,3.60
2018-09-21T15:32:50.981Z,4.00
2018-09-21T15:35:21.123Z,3.60
2018-09-21T15:37:51.351Z,3.53
2018-09-21T15:40:21.591Z,3.70
2018-09-21T15:42:51.726Z,3.70
2018-09-21T15:45:22.001Z,3.33
2018-09-21T15:47:52.184Z,3.80
2018-09-21T15:50:22.176Z,3.83
2018-09-21T15:52:52.182Z,3.77
2018-09-21T15:55:22.556Z,3.57
2018-09-21T15:57:52.832Z,3.80
2018-09-21T16:00:23.009Z,3.80
2018-09-21T16:02:53.113Z,3.60
2018-09-21T16:05:23.180Z,3.63
2018-09-21T16:07:53.160Z,3.60
2018-09-21T16:10:23.211Z,3.50
2018-09-21T16:12:53.321Z,3.70
2018-09-21T16:15:23.747Z,3.73
2018-09-21T16:17:54.116Z,10.87
2018-09-21T16:20:24.377Z,3.77
2018-09-21T16:22:54.514Z,3.73
2018-09-21T16:25:24.498Z,4.23
2018-09-21T16:27:54.318Z,3.53
2018-09-21T16:30:24.546Z,6.07
2018-09-21T16:32:54.709Z,4.03
2018-09-21T16:35:24.708Z,4.53
2018-09-21T16:37:55.094Z,5.73
2018-09-21T16:40:25.196Z,4.63
2018-09-21T16:42:55.282Z,3.93
2018-09-21T16:45:25.488Z,3.97
2018-09-21T16:47:55.795Z,5.43
2018-09-21T16:50:25.962Z,4.90
2018-09-21T16:52:56.158Z,3.97
2018-09-21T16:55:26.478Z,4.47
2018-09-21T16:57:56.708Z,3.87
2018-09-21T17:00:26.714Z,4.60
2018-09-21T17:02:56.911Z,4.20
2018-09-21T17:05:27.127Z,3.87
2018-09-21T17:07:57.315Z,4.20
2018-09-21T17:10:27.544Z,4.47
2018-09-21T17:12:57.792Z,4.40
2018-09-21T17:15:28.176Z,4.30
2018-09-21T17:17:58.172Z,5.03
2018-09-21T17:20:28.301Z,5.03
2018-09-21T17:22:58.338Z,8.60
2018-09-21T17:25:28.515Z,5.10
2018-09-21T17:27:58.744Z,5.20
2018-09-21T17:30:29.230Z,5.10
2018-09-21T17:33:00.219Z,5.17
2018-09-21T17:35:30.739Z,4.70
2018-09-21T17:38:01.315Z,5.47
2018-09-21T17:40:31.601Z,5.00
2018-09-21T17:43:01.898Z,5.40
2018-09-21T17:45:32.033Z,5.90
2018-09-21T17:48:02.309Z,5.87
2018-09-21T17:50:32.537Z,5.63
2018-09-21T17:53:02.656Z,5.40
2018-09-21T17:55:32.901Z,5.53
2018-09-21T17:58:03.413Z,5.50
2018-09-21T18:00:33.760Z,5.80
2018-09-21T18:03:03.880Z,5.97
2018-09-21T18:05:34.589Z,5.73
2018-09-21T18:08:05.804Z,5.83
2018-09-21T18:10:36.436Z,6.23
2018-09-21T18:13:06.557Z,6.90
2018-09-21T18:15:36.863Z,6.80
2018-09-21T18:18:07.204Z,6.97
2018-09-21T18:20:37.484Z,6.10
2018-09-21T18:23:07.688Z,6.13
2018-09-21T18:25:37.914Z,5.97
2018-09-21T18:28:08.202Z,5.83
2018-09-21T18:30:38.376Z,5.37
2018-09-21T18:33:08.482Z,5.43
2018-09-21T18:35:38.494Z,5.60
2018-09-21T18:38:08.604Z,5.90
2018-09-21T18:40:38.874Z,5.43
2018-09-21T18:43:09.076Z,4.93
2018-09-21T18:45:39.374Z,5.07
2018-09-21T18:48:09.483Z,5.73
2018-09-21T18:50:39.722Z,5.50
2018-09-21T18:53:09.715Z,5.33
2018-09-21T18:55:39.771Z,5.20
2018-09-21T18:58:10.309Z,5.23
2018-09-21T19:00:40.545Z,4.87
2018-09-21T19:03:10.853Z,5.30
2018-09-21T19:05:41.063Z,4.80
2018-09-21T19:08:11.156Z,5.30
2018-09-21T19:10:41.543Z,4.70
2018-09-21T19:13:11.975Z,4.90
2018-09-21T19:15:42.695Z,5.00
2018-09-21T19:18:12.926Z,4.67
2018-09-21T19:20:43.024Z,4.60
2018-09-21T19:23:13.730Z,4.70
2018-09-21T19:25:43.993Z,4.50
2018-09-21T19:28:14.003Z,4.83
2018-09-21T19:30:45.639Z,5.10
2018-09-21T19:33:16.015Z,4.60
2018-09-21T19:35:46.884Z,5.40
2018-09-21T19:38:17.415Z,5.03
2018-09-21T19:40:47.641Z,5.20
2018-09-21T19:43:17.866Z,4.37
2018-09-21T19:45:48.225Z,4.40
2018-09-21T19:48:18.321Z,4.37
2018-09-21T19:50:48.548Z,4.77
2018-09-21T19:53:18.831Z,9.30
2018-09-21T19:55:49.258Z,5.17
2018-09-21T19:58:20.198Z,5.43
2018-09-21T20:00:50.780Z,18.53
2018-09-21T20:03:21.286Z,9.97
2018-09-21T20:05:51.585Z,4.83
2018-09-21T20:08:22.156Z,11.17
2018-09-21T20:10:53.245Z,9.40
2018-09-21T20:13:23.489Z,5.73
2018-09-21T20:15:54.313Z,5.10
2018-09-21T20:18:24.534Z,5.23
2018-09-21T20:20:55.049Z,5.50
2018-09-21T20:23:25.288Z,5.60
2018-09-21T20:25:55.481Z,5.50
2018-09-21T20:28:25.664Z,5.60
2018-09-21T20:31:00.929Z,5.83
2018-09-21T20:33:32.836Z,6.27
2018-09-21T20:36:04.201Z,6.00
2018-09-21T20:38:36.417Z,5.70
2018-09-21T20:41:08.553Z,5.83
2018-09-21T20:43:40.337Z,5.77
2018-09-21T20:46:11.930Z,6.30
2018-09-21T20:48:43.580Z,6.50
2018-09-21T20:51:15.299Z,5.70
2018-09-21T20:53:46.535Z,5.73
2018-09-21T20:56:18.096Z,5.90
2018-09-21T20:58:49.745Z,6.10
2018-09-21T21:01:20.893Z,6.27
2018-09-21T21:03:52.749Z,6.40
2018-09-21T21:06:24.075Z,6.43
2018-09-21T21:08:55.756Z,6.27
2018-09-21T21:11:27.813Z,6.07
2018-09-21T21:13:58.832Z,6.00
2018-09-21T21:16:30.063Z,6.23
2018-09-21T21:19:00.978Z,5.93
2018-09-21T21:21:32.478Z,6.40
2018-09-21T21:24:03.873Z,6.73
2018-09-21T21:26:35.190Z,6.73
2018-09-21T21:29:07.044Z,6.77
2018-09-21T21:31:38.624Z,6.73
2018-09-21T21:34:09.411Z,6.57
2018-09-21T21:36:41.499Z,7.20
2018-09-21T21:39:13.049Z,7.00
2018-09-21T21:41:44.890Z,7.33
2018-09-21T21:44:16.587Z,7.17
2018-09-21T21:46:47.957Z,6.70
2018-09-21T21:49:19.048Z,7.10
2018-09-21T21:51:50.608Z,7.37
2018-09-21T21:54:22.383Z,7.60
2018-09-21T21:56:53.934Z,8.00
2018-09-21T21:59:25.657Z,8.30
2018-09-21T22:01:59.470Z,7.90
2018-09-21T22:04:31.201Z,8.37
2018-09-21T22:07:03.227Z,8.77
2018-09-21T22:09:35.637Z,8.30
2018-09-21T22:13:15.419Z,8.83
2018-09-21T22:15:46.000Z,9.03
2018-09-21T22:18:17.139Z,9.20
2018-09-21T22:20:49.633Z,9.03
2018-09-21T22:23:21.801Z,9.10
2018-09-21T22:25:54.112Z,10.03
2018-09-21T22:28:25.909Z,9.47
2018-09-21T22:30:57.698Z,9.70
2018-09-21T22:33:29.287Z,8.97
2018-09-21T22:35:59.983Z,9.27
2018-09-21T22:38:31.046Z,9.20
2018-09-21T22:41:04.601Z,10.13
2018-09-21T22:43:36.084Z,9.27
2018-09-21T22:46:07.578Z,9.40
2018-09-21T22:48:40.630Z,9.00
2018-09-21T22:51:12.466Z,9.33
2018-09-21T22:53:44.181Z,9.70
2018-09-21T22:56:15.439Z,8.77
2018-09-21T22:58:46.607Z,9.50
2018-09-21T23:01:17.693Z,10.03
2018-09-21T23:03:48.703Z,8.57
2018-09-21T23:06:19.611Z,9.30
2018-09-21T23:08:50.673Z,9.03
2018-09-21T23:11:22.059Z,9.57
2018-09-21T23:13:52.776Z,9.40
2018-09-21T23:16:23.825Z,9.37
2018-09-21T23:18:55.552Z,8.90
2018-09-21T23:21:26.457Z,9.10
2018-09-21T23:23:57.685Z,8.77
2018-09-21T23:26:28.646Z,10.77
2018-09-21T23:28:59.431Z,9.00
2018-09-21T23:31:30.732Z,9.17
2018-09-21T23:34:01.698Z,9.17
2018-09-21T23:36:32.903Z,9.70
2018-09-21T23:39:03.805Z,9.33
2018-09-21T23:41:34.800Z,9.27
2018-09-21T23:44:06.191Z,9.63
2018-09-21T23:46:37.520Z,8.10
2018-09-21T23:49:08.659Z,8.83
2018-09-21T23:51:39.951Z,8.90
2018-09-21T23:54:11.157Z,9.33
2018-09-21T23:56:42.216Z,9.07
2018-09-21T23:59:13.477Z,9.53
